sensor_id;sensor_type;location;lat;lon;timestamp;P1;durP1;ratioP1;P2;durP2;ratioP2
21140;SDS011;10728;53.284;10.314;2022-08-21T00:02:02;2.67;;;1.77;;
21140;SDS011;10728;53.284;10.314;2022-08-21T00:04:29;3.30;;;1.43;;
21140;SDS011;10728;53.284;10.314;2022-08-21T00:06:55;2.83;;;1.57;;
21140;SDS011;10728;53.284;10.314;2022-08-21T00:09:21;2.70;;;1.50;;
21140;SDS011;10728;53.284;10.314;2022-08-21T00:11:47;2.87;;;1.57;;
21140;SDS011;10728;53.284;10.314;2022-08-21T00:14:13;2.63;;;1.47;;
21140;SDS011;10728;53.284;10.314;2022-08-21T00:16:38;1.47;;;1.30;;
21140;SDS011;10728;53.284;10.314;2022-08-21T00:19:05;2.53;;;1.60;;
21140;SDS011;10728;53.284;10.314;2022-08-21T00:21:31;1.50;;;1.40;;
21140;SDS011;10728;53.284;10.314;2022-08-21T00:23:57;2.10;;;1.37;;
21140;SDS011;10728;53.284;10.314;2022-08-21T00:26:22;2.30;;;1.60;;
21140;SDS011;10728;53.284;10.314;2022-08-21T00:28:48;1.33;;;1.17;;
21140;SDS011;10728;53.284;10.314;2022-08-21T00:31:14;1.80;;;1.60;;
21140;SDS011;10728;53.284;10.314;2022-08-21T00:33:40;2.87;;;1.30;;
21140;SDS011;10728;53.284;10.314;2022-08-21T00:36:06;2.40;;;1.53;;
21140;SDS011;10728;53.284;10.314;2022-08-21T00:38:32;1.77;;;1.53;;
21140;SDS011;10728;53.284;10.314;2022-08-21T00:40:59;3.10;;;1.70;;
21140;SDS011;10728;53.284;10.314;2022-08-21T00:43:30;2.00;;;1.40;;
21140;SDS011;10728;53.284;10.314;2022-08-21T00:45:57;2.10;;;1.50;;
21140;SDS011;10728;53.284;10.314;2022-08-21T00:48:23;2.47;;;1.80;;
21140;SDS011;10728;53.284;10.314;2022-08-21T00:50:55;4.10;;;1.70;;
21140;SDS011;10728;53.284;10.314;2022-08-21T00:53:23;2.83;;;1.90;;
21140;SDS011;10728;53.284;10.314;2022-08-21T00:55:50;4.40;;;1.50;;
21140;SDS011;10728;53.284;10.314;2022-08-21T00:58:16;2.47;;;1.67;;
21140;SDS011;10728;53.284;10.314;2022-08-21T01:00:43;4.00;;;1.70;;
21140;SDS011;10728;53.284;10.314;2022-08-21T01:03:21;2.33;;;1.40;;
21140;SDS011;10728;53.284;10.314;2022-08-21T01:05:47;2.27;;;1.57;;
21140;SDS011;10728;53.284;10.314;2022-08-21T01:08:13;2.50;;;1.70;;
21140;SDS011;10728;53.284;10.314;2022-08-21T01:10:40;1.57;;;1.40;;
21140;SDS011;10728;53.284;10.314;2022-08-21T01:13:06;2.50;;;1.60;;
21140;SDS011;10728;53.284;10.314;2022-08-21T01:15:35;1.57;;;1.37;;
21140;SDS011;10728;53.284;10.314;2022-08-21T01:18:03;3.83;;;1.80;;
21140;SDS011;10728;53.284;10.314;2022-08-21T01:20:31;3.20;;;1.80;;
21140;SDS011;10728;53.284;10.314;2022-08-21T01:22:57;2.77;;;1.50;;
21140;SDS011;10728;53.284;10.314;2022-08-21T01:25:22;3.07;;;1.70;;
21140;SDS011;10728;53.284;10.314;2022-08-21T01:27:48;2.30;;;1.60;;
21140;SDS011;10728;53.284;10.314;2022-08-21T01:30:16;2.83;;;1.60;;
21140;SDS011;10728;53.284;10.314;2022-08-21T01:32:44;1.80;;;1.40;;
21140;SDS011;10728;53.284;10.314;2022-08-21T01:35:13;2.40;;;1.53;;
21140;SDS011;10728;53.284;10.314;2022-08-21T01:37:39;2.20;;;1.60;;
21140;SDS011;10728;53.284;10.314;2022-08-21T01:40:05;1.97;;;1.60;;
21140;SDS011;10728;53.284;10.314;2022-08-21T01:42:32;3.37;;;1.90;;
21140;SDS011;10728;53.284;10.314;2022-08-21T01:44:59;1.97;;;1.53;;
21140;SDS011;10728;53.284;10.314;2022-08-21T01:47:25;5.27;;;2.00;;
21140;SDS011;10728;53.284;10.314;2022-08-21T01:49:51;3.83;;;1.57;;
21140;SDS011;10728;53.284;10.314;2022-08-21T01:52:19;2.93;;;1.90;;
21140;SDS011;10728;53.284;10.314;2022-08-21T01:54:45;1.87;;;1.60;;
21140;SDS011;10728;53.284;10.314;2022-08-21T01:57:13;2.37;;;1.70;;
21140;SDS011;10728;53.284;10.314;2022-08-21T01:59:39;1.70;;;1.60;;
21140;SDS011;10728;53.284;10.314;2022-08-21T02:02:05;1.87;;;1.57;;
21140;SDS011;10728;53.284;10.314;2022-08-21T02:04:31;2.30;;;1.83;;
21140;SDS011;10728;53.284;10.314;2022-08-21T02:06:57;1.83;;;1.33;;
21140;SDS011;10728;53.284;10.314;2022-08-21T02:09:24;1.70;;;1.60;;
21140;SDS011;10728;53.284;10.314;2022-08-21T02:11:50;3.10;;;1.90;;
21140;SDS011;10728;53.284;10.314;2022-08-21T02:14:16;4.63;;;2.00;;
21140;SDS011;10728;53.284;10.314;2022-08-21T02:16:43;2.30;;;1.60;;
21140;SDS011;10728;53.284;10.314;2022-08-21T02:19:09;3.87;;;1.63;;
21140;SDS011;10728;53.284;10.314;2022-08-21T02:21:36;2.53;;;1.60;;
21140;SDS011;10728;53.284;10.314;2022-08-21T02:24:02;1.50;;;1.33;;
21140;SDS011;10728;53.284;10.314;2022-08-21T02:26:27;3.30;;;1.63;;
21140;SDS011;10728;53.284;10.314;2022-08-21T02:28:53;2.30;;;1.50;;
21140;SDS011;10728;53.284;10.314;2022-08-21T02:31:19;2.23;;;1.60;;
21140;SDS011;10728;53.284;10.314;2022-08-21T02:33:45;3.07;;;1.40;;
21140;SDS011;10728;53.284;10.314;2022-08-21T02:36:11;2.00;;;1.50;;
21140;SDS011;10728;53.284;10.314;2022-08-21T02:38:38;2.73;;;1.33;;
21140;SDS011;10728;53.284;10.314;2022-08-21T02:41:06;2.90;;;1.60;;
21140;SDS011;10728;53.284;10.314;2022-08-21T02:43:34;2.40;;;1.90;;
21140;SDS011;10728;53.284;10.314;2022-08-21T02:46:01;3.53;;;1.47;;
21140;SDS011;10728;53.284;10.314;2022-08-21T02:48:28;2.03;;;1.57;;
21140;SDS011;10728;53.284;10.314;2022-08-21T02:51:17;3.33;;;1.57;;
21140;SDS011;10728;53.284;10.314;2022-08-21T02:53:43;1.70;;;1.50;;
21140;SDS011;10728;53.284;10.314;2022-08-21T02:56:11;2.97;;;1.80;;
21140;SDS011;10728;53.284;10.314;2022-08-21T02:58:40;4.13;;;1.67;;
21140;SDS011;10728;53.284;10.314;2022-08-21T03:01:07;2.37;;;1.60;;
21140;SDS011;10728;53.284;10.314;2022-08-21T03:03:37;1.63;;;1.47;;
21140;SDS011;10728;53.284;10.314;2022-08-21T03:06:05;2.00;;;1.80;;
21140;SDS011;10728;53.284;10.314;2022-08-21T03:08:31;1.93;;;1.57;;
21140;SDS011;10728;53.284;10.314;2022-08-21T03:10:57;1.70;;;1.53;;
21140;SDS011;10728;53.284;10.314;2022-08-21T03:13:24;3.17;;;2.10;;
21140;SDS011;10728;53.284;10.314;2022-08-21T03:15:50;2.70;;;2.13;;
21140;SDS011;10728;53.284;10.314;2022-08-21T03:18:16;2.83;;;1.73;;
21140;SDS011;10728;53.284;10.314;2022-08-21T03:20:42;2.67;;;1.90;;
21140;SDS011;10728;53.284;10.314;2022-08-21T03:23:10;3.43;;;2.00;;
21140;SDS011;10728;53.284;10.314;2022-08-21T03:25:35;3.80;;;2.10;;
21140;SDS011;10728;53.284;10.314;2022-08-21T03:28:02;2.60;;;1.87;;
21140;SDS011;10728;53.284;10.314;2022-08-21T03:30:30;1.90;;;1.50;;
21140;SDS011;10728;53.284;10.314;2022-08-21T03:32:59;1.60;;;1.50;;
21140;SDS011;10728;53.284;10.314;2022-08-21T03:35:25;2.07;;;1.87;;
21140;SDS011;10728;53.284;10.314;2022-08-21T03:37:51;3.07;;;1.80;;
21140;SDS011;10728;53.284;10.314;2022-08-21T03:40:18;1.70;;;1.60;;
21140;SDS011;10728;53.284;10.314;2022-08-21T03:42:45;2.50;;;1.60;;
21140;SDS011;10728;53.284;10.314;2022-08-21T03:45:14;3.20;;;1.90;;
21140;SDS011;10728;53.284;10.314;2022-08-21T03:47:52;2.53;;;1.70;;
21140;SDS011;10728;53.284;10.314;2022-08-21T03:50:17;2.50;;;1.83;;
21140;SDS011;10728;53.284;10.314;2022-08-21T03:52:43;1.90;;;1.50;;
21140;SDS011;10728;53.284;10.314;2022-08-21T03:55:09;1.83;;;1.57;;
21140;SDS011;10728;53.284;10.314;2022-08-21T03:57:37;2.47;;;1.60;;
21140;SDS011;10728;53.284;10.314;2022-08-21T04:00:03;2.10;;;1.80;;
21140;SDS011;10728;53.284;10.314;2022-08-21T04:02:33;1.87;;;1.50;;
21140;SDS011;10728;53.284;10.314;2022-08-21T04:04:58;2.10;;;1.90;;
21140;SDS011;10728;53.284;10.314;2022-08-21T04:07:24;2.00;;;1.43;;
21140;SDS011;10728;53.284;10.314;2022-08-21T04:09:50;2.07;;;1.53;;
21140;SDS011;10728;53.284;10.314;2022-08-21T04:12:15;2.10;;;1.83;;
21140;SDS011;10728;53.284;10.314;2022-08-21T04:14:41;2.60;;;1.87;;
21140;SDS011;10728;53.284;10.314;2022-08-21T04:17:07;3.80;;;1.40;;
21140;SDS011;10728;53.284;10.314;2022-08-21T04:19:32;2.53;;;1.70;;
21140;SDS011;10728;53.284;10.314;2022-08-21T04:21:58;4.17;;;2.10;;
21140;SDS011;10728;53.284;10.314;2022-08-21T04:24:23;1.80;;;1.40;;
21140;SDS011;10728;53.284;10.314;2022-08-21T04:26:49;2.13;;;1.70;;
21140;SDS011;10728;53.284;10.314;2022-08-21T04:29:15;2.57;;;1.63;;
21140;SDS011;10728;53.284;10.314;2022-08-21T04:31:40;2.70;;;1.60;;
21140;SDS011;10728;53.284;10.314;2022-08-21T04:34:06;3.00;;;1.70;;
21140;SDS011;10728;53.284;10.314;2022-08-21T04:36:32;2.57;;;1.90;;
21140;SDS011;10728;53.284;10.314;2022-08-21T04:38:58;2.60;;;1.80;;
21140;SDS011;10728;53.284;10.314;2022-08-21T04:41:24;2.00;;;1.33;;
21140;SDS011;10728;53.284;10.314;2022-08-21T04:43:49;2.37;;;1.67;;
21140;SDS011;10728;53.284;10.314;2022-08-21T04:46:15;3.30;;;2.03;;
21140;SDS011;10728;53.284;10.314;2022-08-21T04:48:40;2.03;;;1.80;;
21140;SDS011;10728;53.284;10.314;2022-08-21T04:54:03;2.97;;;1.53;;
21140;SDS011;10728;53.284;10.314;2022-08-21T04:56:40;3.40;;;1.93;;
21140;SDS011;10728;53.284;10.314;2022-08-21T04:59:11;1.93;;;1.30;;
21140;SDS011;10728;53.284;10.314;2022-08-21T05:01:41;2.60;;;1.40;;
21140;SDS011;10728;53.284;10.314;2022-08-21T05:04:08;2.90;;;1.40;;
21140;SDS011;10728;53.284;10.314;2022-08-21T05:06:36;2.03;;;1.47;;
21140;SDS011;10728;53.284;10.314;2022-08-21T05:09:04;1.70;;;1.50;;
21140;SDS011;10728;53.284;10.314;2022-08-21T05:11:30;2.37;;;1.80;;
21140;SDS011;10728;53.284;10.314;2022-08-21T05:13:57;2.60;;;1.80;;
21140;SDS011;10728;53.284;10.314;2022-08-21T05:16:22;3.83;;;1.80;;
21140;SDS011;10728;53.284;10.314;2022-08-21T05:18:48;2.67;;;1.70;;
21140;SDS011;10728;53.284;10.314;2022-08-21T05:21:13;3.43;;;2.23;;
21140;SDS011;10728;53.284;10.314;2022-08-21T05:23:39;3.37;;;1.83;;
21140;SDS011;10728;53.284;10.314;2022-08-21T05:26:04;2.97;;;2.03;;
21140;SDS011;10728;53.284;10.314;2022-08-21T05:28:33;3.77;;;2.70;;
21140;SDS011;10728;53.284;10.314;2022-08-21T05:30:58;3.00;;;1.60;;
21140;SDS011;10728;53.284;10.314;2022-08-21T05:33:24;2.83;;;2.10;;
21140;SDS011;10728;53.284;10.314;2022-08-21T05:35:51;2.40;;;2.10;;
21140;SDS011;10728;53.284;10.314;2022-08-21T05:38:17;4.17;;;2.00;;
21140;SDS011;10728;53.284;10.314;2022-08-21T05:40:44;2.47;;;2.00;;
21140;SDS011;10728;53.284;10.314;2022-08-21T05:43:09;3.93;;;1.90;;
21140;SDS011;10728;53.284;10.314;2022-08-21T05:45:35;5.53;;;2.50;;
21140;SDS011;10728;53.284;10.314;2022-08-21T05:48:12;3.07;;;2.40;;
21140;SDS011;10728;53.284;10.314;2022-08-21T05:50:41;6.33;;;2.53;;
21140;SDS011;10728;53.284;10.314;2022-08-21T05:53:07;3.73;;;2.50;;
21140;SDS011;10728;53.284;10.314;2022-08-21T05:55:35;8.63;;;3.23;;
21140;SDS011;10728;53.284;10.314;2022-08-21T05:58:02;5.30;;;2.97;;
21140;SDS011;10728;53.284;10.314;2022-08-21T06:00:28;7.23;;;3.20;;
21140;SDS011;10728;53.284;10.314;2022-08-21T06:02:53;7.77;;;3.03;;
21140;SDS011;10728;53.284;10.314;2022-08-21T06:05:19;5.07;;;2.40;;
21140;SDS011;10728;53.284;10.314;2022-08-21T06:07:45;3.33;;;2.67;;
21140;SDS011;10728;53.284;10.314;2022-08-21T06:10:11;4.27;;;2.40;;
21140;SDS011;10728;53.284;10.314;2022-08-21T06:12:36;5.27;;;2.87;;
21140;SDS011;10728;53.284;10.314;2022-08-21T06:15:02;6.43;;;2.60;;
21140;SDS011;10728;53.284;10.314;2022-08-21T06:17:28;4.60;;;2.50;;
21140;SDS011;10728;53.284;10.314;2022-08-21T06:19:54;5.40;;;2.47;;
21140;SDS011;10728;53.284;10.314;2022-08-21T06:22:19;5.10;;;2.50;;
21140;SDS011;10728;53.284;10.314;2022-08-21T06:24:45;3.97;;;2.60;;
21140;SDS011;10728;53.284;10.314;2022-08-21T06:27:11;3.87;;;2.57;;
21140;SDS011;10728;53.284;10.314;2022-08-21T06:29:37;3.63;;;2.47;;
21140;SDS011;10728;53.284;10.314;2022-08-21T06:32:03;3.97;;;2.60;;
21140;SDS011;10728;53.284;10.314;2022-08-21T06:34:29;2.50;;;2.00;;
21140;SDS011;10728;53.284;10.314;2022-08-21T06:36:55;2.27;;;1.83;;
21140;SDS011;10728;53.284;10.314;2022-08-21T06:39:21;3.97;;;2.00;;
21140;SDS011;10728;53.284;10.314;2022-08-21T06:41:47;4.33;;;2.00;;
21140;SDS011;10728;53.284;10.314;2022-08-21T06:44:12;2.77;;;1.70;;
21140;SDS011;10728;53.284;10.314;2022-08-21T06:46:41;4.23;;;2.20;;
21140;SDS011;10728;53.284;10.314;2022-08-21T06:49:06;4.25;;;2.10;;
21140;SDS011;10728;53.284;10.314;2022-08-21T06:51:32;4.32;;;2.42;;
21140;SDS011;10728;53.284;10.314;2022-08-21T06:53:57;3.03;;;1.80;;
21140;SDS011;10728;53.284;10.314;2022-08-21T06:56:23;3.30;;;1.98;;
21140;SDS011;10728;53.284;10.314;2022-08-21T06:58:48;6.83;;;2.07;;
21140;SDS011;10728;53.284;10.314;2022-08-21T07:01:14;3.73;;;1.70;;
21140;SDS011;10728;53.284;10.314;2022-08-21T07:03:40;4.55;;;1.90;;
21140;SDS011;10728;53.284;10.314;2022-08-21T07:06:08;7.28;;;2.20;;
21140;SDS011;10728;53.284;10.314;2022-08-21T07:08:34;4.57;;;1.85;;
21140;SDS011;10728;53.284;10.314;2022-08-21T07:11:02;4.13;;;2.15;;
21140;SDS011;10728;53.284;10.314;2022-08-21T07:13:29;4.40;;;2.00;;
21140;SDS011;10728;53.284;10.314;2022-08-21T07:15:55;5.65;;;2.20;;
21140;SDS011;10728;53.284;10.314;2022-08-21T07:18:20;5.88;;;1.80;;
21140;SDS011;10728;53.284;10.314;2022-08-21T07:20:46;4.70;;;1.85;;
21140;SDS011;10728;53.284;10.314;2022-08-21T07:23:12;4.22;;;1.63;;
21140;SDS011;10728;53.284;10.314;2022-08-21T07:25:56;4.03;;;1.77;;
21140;SDS011;10728;53.284;10.314;2022-08-21T07:28:22;4.13;;;1.83;;
21140;SDS011;10728;53.284;10.314;2022-08-21T07:30:51;4.28;;;1.73;;
21140;SDS011;10728;53.284;10.314;2022-08-21T07:33:18;2.72;;;1.60;;
21140;SDS011;10728;53.284;10.314;2022-08-21T07:35:44;3.88;;;1.60;;
21140;SDS011;10728;53.284;10.314;2022-08-21T07:38:09;6.00;;;1.35;;
21140;SDS011;10728;53.284;10.314;2022-08-21T07:40:35;4.28;;;1.77;;
21140;SDS011;10728;53.284;10.314;2022-08-21T07:43:00;5.53;;;1.75;;
21140;SDS011;10728;53.284;10.314;2022-08-21T07:45:26;3.45;;;1.50;;
21140;SDS011;10728;53.284;10.314;2022-08-21T07:47:52;5.82;;;1.55;;
21140;SDS011;10728;53.284;10.314;2022-08-21T07:50:18;3.42;;;1.77;;
21140;SDS011;10728;53.284;10.314;2022-08-21T07:52:44;3.58;;;1.42;;
21140;SDS011;10728;53.284;10.314;2022-08-21T07:55:10;7.03;;;2.10;;
21140;SDS011;10728;53.284;10.314;2022-08-21T07:57:38;4.55;;;2.03;;
21140;SDS011;10728;53.284;10.314;2022-08-21T08:00:05;4.28;;;1.48;;
21140;SDS011;10728;53.284;10.314;2022-08-21T08:02:37;5.10;;;1.60;;
21140;SDS011;10728;53.284;10.314;2022-08-21T08:05:04;3.88;;;1.50;;
21140;SDS011;10728;53.284;10.314;2022-08-21T08:07:31;4.38;;;1.80;;
21140;SDS011;10728;53.284;10.314;2022-08-21T08:09:57;3.30;;;1.85;;
21140;SDS011;10728;53.284;10.314;2022-08-21T08:12:23;4.97;;;1.63;;
21140;SDS011;10728;53.284;10.314;2022-08-21T08:14:55;6.18;;;1.65;;
21140;SDS011;10728;53.284;10.314;2022-08-21T08:17:25;6.60;;;2.10;;
21140;SDS011;10728;53.284;10.314;2022-08-21T08:19:51;6.00;;;2.88;;
21140;SDS011;10728;53.284;10.314;2022-08-21T08:22:17;5.40;;;4.55;;
21140;SDS011;10728;53.284;10.314;2022-08-21T08:24:45;7.07;;;4.47;;
21140;SDS011;10728;53.284;10.314;2022-08-21T08:27:16;6.78;;;4.05;;
21140;SDS011;10728;53.284;10.314;2022-08-21T08:29:43;8.15;;;3.65;;
21140;SDS011;10728;53.284;10.314;2022-08-21T08:32:09;6.28;;;3.30;;
21140;SDS011;10728;53.284;10.314;2022-08-21T08:34:41;6.45;;;2.92;;
21140;SDS011;10728;53.284;10.314;2022-08-21T08:37:09;7.28;;;2.38;;
21140;SDS011;10728;53.284;10.314;2022-08-21T08:39:36;5.00;;;2.10;;
21140;SDS011;10728;53.284;10.314;2022-08-21T08:44:35;4.22;;;1.80;;
21140;SDS011;10728;53.284;10.314;2022-08-21T08:47:04;5.25;;;2.08;;
21140;SDS011;10728;53.284;10.314;2022-08-21T08:52:30;6.20;;;1.95;;
21140;SDS011;10728;53.284;10.314;2022-08-21T08:55:03;3.95;;;1.50;;
21140;SDS011;10728;53.284;10.314;2022-08-21T08:57:31;6.70;;;1.90;;
21140;SDS011;10728;53.284;10.314;2022-08-21T09:00:09;5.93;;;1.92;;
21140;SDS011;10728;53.284;10.314;2022-08-21T09:02:40;8.50;;;1.83;;
21140;SDS011;10728;53.284;10.314;2022-08-21T09:05:07;5.40;;;1.98;;
21140;SDS011;10728;53.284;10.314;2022-08-21T09:10:51;12.35;;;1.85;;
21140;SDS011;10728;53.284;10.314;2022-08-21T09:24:32;5.03;;;2.17;;
21140;SDS011;10728;53.284;10.314;2022-08-21T09:27:14;4.85;;;1.95;;
21140;SDS011;10728;53.284;10.314;2022-08-21T09:29:42;5.60;;;1.88;;
21140;SDS011;10728;53.284;10.314;2022-08-21T09:32:17;7.30;;;1.90;;
21140;SDS011;10728;53.284;10.314;2022-08-21T09:37:53;6.32;;;1.88;;
21140;SDS011;10728;53.284;10.314;2022-08-21T09:43:19;5.25;;;2.22;;
21140;SDS011;10728;53.284;10.314;2022-08-21T09:45:48;6.63;;;2.13;;
21140;SDS011;10728;53.284;10.314;2022-08-21T09:48:27;5.63;;;2.28;;
21140;SDS011;10728;53.284;10.314;2022-08-21T09:51:04;4.07;;;1.92;;
21140;SDS011;10728;53.284;10.314;2022-08-21T09:53:31;4.55;;;1.80;;
21140;SDS011;10728;53.284;10.314;2022-08-21T09:55:58;7.20;;;2.70;;
21140;SDS011;10728;53.284;10.314;2022-08-21T09:58:46;6.95;;;2.05;;
21140;SDS011;10728;53.284;10.314;2022-08-21T10:01:24;11.98;;;2.53;;
21140;SDS011;10728;53.284;10.314;2022-08-21T10:04:04;6.47;;;1.98;;
21140;SDS011;10728;53.284;10.314;2022-08-21T10:06:31;7.80;;;2.45;;
21140;SDS011;10728;53.284;10.314;2022-08-21T10:09:06;9.07;;;2.17;;
21140;SDS011;10728;53.284;10.314;2022-08-21T10:11:35;7.13;;;1.88;;
21140;SDS011;10728;53.284;10.314;2022-08-21T10:14:06;7.13;;;2.30;;
21140;SDS011;10728;53.284;10.314;2022-08-21T10:16:54;4.82;;;2.30;;
21140;SDS011;10728;53.284;10.314;2022-08-21T10:20:09;5.43;;;2.25;;
21140;SDS011;10728;53.284;10.314;2022-08-21T10:22:59;12.25;;;3.20;;
21140;SDS011;10728;53.284;10.314;2022-08-21T10:25:37;11.30;;;2.67;;
21140;SDS011;10728;53.284;10.314;2022-08-21T10:39:46;6.50;;;2.17;;
21140;SDS011;10728;53.284;10.314;2022-08-21T10:42:32;6.85;;;2.28;;
21140;SDS011;10728;53.284;10.314;2022-08-21T10:45:05;8.32;;;2.08;;
21140;SDS011;10728;53.284;10.314;2022-08-21T10:55:22;7.25;;;2.08;;
21140;SDS011;10728;53.284;10.314;2022-08-21T11:00:28;7.38;;;2.25;;
21140;SDS011;10728;53.284;10.314;2022-08-21T11:03:01;6.43;;;2.33;;
21140;SDS011;10728;53.284;10.314;2022-08-21T11:05:36;6.18;;;2.22;;
21140;SDS011;10728;53.284;10.314;2022-08-21T11:08:15;6.70;;;1.90;;
21140;SDS011;10728;53.284;10.314;2022-08-21T11:16:59;6.93;;;2.30;;
21140;SDS011;10728;53.284;10.314;2022-08-21T11:19:30;3.90;;;2.10;;
21140;SDS011;10728;53.284;10.314;2022-08-21T11:27:31;4.90;;;1.88;;
21140;SDS011;10728;53.284;10.314;2022-08-21T11:30:02;5.30;;;2.03;;
21140;SDS011;10728;53.284;10.314;2022-08-21T11:46:00;2.70;;;1.55;;
21140;SDS011;10728;53.284;10.314;2022-08-21T11:51:18;8.65;;;1.70;;
21140;SDS011;10728;53.284;10.314;2022-08-21T11:54:03;3.05;;;1.83;;
21140;SDS011;10728;53.284;10.314;2022-08-21T11:56:37;3.80;;;1.60;;
21140;SDS011;10728;53.284;10.314;2022-08-21T11:59:13;4.45;;;1.60;;
21140;SDS011;10728;53.284;10.314;2022-08-21T12:01:46;4.03;;;1.83;;
21140;SDS011;10728;53.284;10.314;2022-08-21T12:04:22;2.75;;;1.60;;
21140;SDS011;10728;53.284;10.314;2022-08-21T12:06:51;5.78;;;1.70;;
21140;SDS011;10728;53.284;10.314;2022-08-21T12:14:35;3.92;;;1.60;;
21140;SDS011;10728;53.284;10.314;2022-08-21T12:17:07;2.78;;;1.70;;
21140;SDS011;10728;53.284;10.314;2022-08-21T12:19:34;4.13;;;1.80;;
21140;SDS011;10728;53.284;10.314;2022-08-21T12:24:44;4.35;;;1.67;;
21140;SDS011;10728;53.284;10.314;2022-08-21T12:29:46;3.30;;;1.67;;
21140;SDS011;10728;53.284;10.314;2022-08-21T12:34:40;5.45;;;1.63;;
21140;SDS011;10728;53.284;10.314;2022-08-21T12:37:16;3.60;;;1.40;;
21140;SDS011;10728;53.284;10.314;2022-08-21T12:40:09;4.68;;;1.60;;
21140;SDS011;10728;53.284;10.314;2022-08-21T12:42:40;6.15;;;1.73;;
21140;SDS011;10728;53.284;10.314;2022-08-21T12:50:44;2.75;;;1.40;;
21140;SDS011;10728;53.284;10.314;2022-08-21T12:53:13;3.92;;;1.63;;
21140;SDS011;10728;53.284;10.314;2022-08-21T12:55:46;3.15;;;1.48;;
21140;SDS011;10728;53.284;10.314;2022-08-21T12:58:19;4.05;;;1.52;;
21140;SDS011;10728;53.284;10.314;2022-08-21T13:00:47;2.40;;;1.40;;
21140;SDS011;10728;53.284;10.314;2022-08-21T13:03:15;3.50;;;1.30;;
21140;SDS011;10728;53.284;10.314;2022-08-21T13:05:41;4.07;;;1.60;;
21140;SDS011;10728;53.284;10.314;2022-08-21T13:08:07;3.08;;;1.33;;
21140;SDS011;10728;53.284;10.314;2022-08-21T13:10:35;2.80;;;1.45;;
21140;SDS011;10728;53.284;10.314;2022-08-21T13:13:05;4.10;;;1.30;;
21140;SDS011;10728;53.284;10.314;2022-08-21T13:15:33;3.55;;;1.40;;
21140;SDS011;10728;53.284;10.314;2022-08-21T13:18:00;4.15;;;1.52;;
21140;SDS011;10728;53.284;10.314;2022-08-21T13:20:29;4.30;;;1.38;;
21140;SDS011;10728;53.284;10.314;2022-08-21T13:22:56;3.03;;;1.40;;
21140;SDS011;10728;53.284;10.314;2022-08-21T13:25:25;3.72;;;1.23;;
21140;SDS011;10728;53.284;10.314;2022-08-21T13:27:58;3.55;;;1.40;;
21140;SDS011;10728;53.284;10.314;2022-08-21T13:30:24;2.15;;;1.15;;
21140;SDS011;10728;53.284;10.314;2022-08-21T13:32:51;3.38;;;1.20;;
21140;SDS011;10728;53.284;10.314;2022-08-21T13:37:56;4.07;;;1.55;;
21140;SDS011;10728;53.284;10.314;2022-08-21T13:40:29;4.22;;;1.20;;
21140;SDS011;10728;53.284;10.314;2022-08-21T13:42:57;3.78;;;1.17;;
21140;SDS011;10728;53.284;10.314;2022-08-21T13:45:26;4.78;;;1.30;;
21140;SDS011;10728;53.284;10.314;2022-08-21T13:47:56;2.95;;;1.27;;
21140;SDS011;10728;53.284;10.314;2022-08-21T13:50:22;2.58;;;1.20;;
21140;SDS011;10728;53.284;10.314;2022-08-21T13:53:03;2.90;;;1.20;;
21140;SDS011;10728;53.284;10.314;2022-08-21T13:55:38;5.07;;;1.63;;
21140;SDS011;10728;53.284;10.314;2022-08-21T13:58:06;3.80;;;1.50;;
21140;SDS011;10728;53.284;10.314;2022-08-21T14:00:35;3.10;;;1.50;;
21140;SDS011;10728;53.284;10.314;2022-08-21T14:03:12;3.72;;;1.73;;
21140;SDS011;10728;53.284;10.314;2022-08-21T14:05:49;3.78;;;1.40;;
21140;SDS011;10728;53.284;10.314;2022-08-21T14:08:21;1.83;;;1.20;;
21140;SDS011;10728;53.284;10.314;2022-08-21T14:10:52;3.67;;;1.42;;
21140;SDS011;10728;53.284;10.314;2022-08-21T14:16:03;3.13;;;1.20;;
21140;SDS011;10728;53.284;10.314;2022-08-21T14:18:50;5.40;;;1.63;;
21140;SDS011;10728;53.284;10.314;2022-08-21T14:21:38;3.40;;;1.35;;
21140;SDS011;10728;53.284;10.314;2022-08-21T14:24:24;2.53;;;1.48;;
21140;SDS011;10728;53.284;10.314;2022-08-21T14:29:32;3.05;;;1.38;;
21140;SDS011;10728;53.284;10.314;2022-08-21T14:32:00;7.78;;;1.63;;
21140;SDS011;10728;53.284;10.314;2022-08-21T14:34:35;2.50;;;1.23;;
21140;SDS011;10728;53.284;10.314;2022-08-21T14:37:00;2.38;;;1.33;;
21140;SDS011;10728;53.284;10.314;2022-08-21T14:39:26;2.15;;;1.02;;
21140;SDS011;10728;53.284;10.314;2022-08-21T14:41:52;2.88;;;1.35;;
21140;SDS011;10728;53.284;10.314;2022-08-21T14:44:18;4.78;;;1.30;;
21140;SDS011;10728;53.284;10.314;2022-08-21T14:46:44;3.05;;;1.30;;
21140;SDS011;10728;53.284;10.314;2022-08-21T14:49:10;3.65;;;1.40;;
21140;SDS011;10728;53.284;10.314;2022-08-21T14:51:36;4.82;;;1.35;;
21140;SDS011;10728;53.284;10.314;2022-08-21T14:54:04;3.05;;;1.48;;
21140;SDS011;10728;53.284;10.314;2022-08-21T14:56:30;2.17;;;1.40;;
21140;SDS011;10728;53.284;10.314;2022-08-21T14:58:58;1.90;;;1.35;;
21140;SDS011;10728;53.284;10.314;2022-08-21T15:01:27;3.60;;;1.70;;
21140;SDS011;10728;53.284;10.314;2022-08-21T15:04:00;3.78;;;1.55;;
21140;SDS011;10728;53.284;10.314;2022-08-21T15:06:26;4.03;;;1.55;;
21140;SDS011;10728;53.284;10.314;2022-08-21T15:08:51;4.25;;;1.70;;
21140;SDS011;10728;53.284;10.314;2022-08-21T15:11:20;5.25;;;2.00;;
21140;SDS011;10728;53.284;10.314;2022-08-21T15:13:50;2.47;;;1.45;;
21140;SDS011;10728;53.284;10.314;2022-08-21T15:16:18;4.93;;;1.40;;
21140;SDS011;10728;53.284;10.314;2022-08-21T15:18:44;4.30;;;1.52;;
21140;SDS011;10728;53.284;10.314;2022-08-21T15:21:09;2.80;;;1.45;;
21140;SDS011;10728;53.284;10.314;2022-08-21T15:23:42;2.42;;;1.50;;
21140;SDS011;10728;53.284;10.314;2022-08-21T15:26:08;2.35;;;1.40;;
21140;SDS011;10728;53.284;10.314;2022-08-21T15:28:34;5.00;;;1.80;;
21140;SDS011;10728;53.284;10.314;2022-08-21T15:31:00;4.28;;;1.63;;
21140;SDS011;10728;53.284;10.314;2022-08-21T15:33:26;4.10;;;1.67;;
21140;SDS011;10728;53.284;10.314;2022-08-21T15:35:51;4.68;;;1.52;;
21140;SDS011;10728;53.284;10.314;2022-08-21T15:38:17;2.90;;;1.50;;
21140;SDS011;10728;53.284;10.314;2022-08-21T15:40:43;4.80;;;1.45;;
21140;SDS011;10728;53.284;10.314;2022-08-21T15:43:10;2.97;;;1.42;;
21140;SDS011;10728;53.284;10.314;2022-08-21T15:45:52;3.88;;;1.30;;
21140;SDS011;10728;53.284;10.314;2022-08-21T15:48:18;4.28;;;1.52;;
21140;SDS011;10728;53.284;10.314;2022-08-21T15:50:47;2.90;;;1.60;;
21140;SDS011;10728;53.284;10.314;2022-08-21T15:53:13;2.65;;;1.42;;
21140;SDS011;10728;53.284;10.314;2022-08-21T15:55:39;4.35;;;1.58;;
21140;SDS011;10728;53.284;10.314;2022-08-21T15:58:04;3.00;;;1.33;;
21140;SDS011;10728;53.284;10.314;2022-08-21T16:00:31;3.10;;;1.30;;
21140;SDS011;10728;53.284;10.314;2022-08-21T16:02:58;2.22;;;1.40;;
21140;SDS011;10728;53.284;10.314;2022-08-21T16:05:23;3.25;;;1.65;;
21140;SDS011;10728;53.284;10.314;2022-08-21T16:07:49;4.03;;;1.50;;
21140;SDS011;10728;53.284;10.314;2022-08-21T16:10:17;2.58;;;1.60;;
21140;SDS011;10728;53.284;10.314;2022-08-21T16:12:54;3.13;;;1.33;;
21140;SDS011;10728;53.284;10.314;2022-08-21T16:15:23;2.20;;;1.30;;
21140;SDS011;10728;53.284;10.314;2022-08-21T16:17:50;3.65;;;1.45;;
21140;SDS011;10728;53.284;10.314;2022-08-21T16:20:18;1.52;;;0.95;;
21140;SDS011;10728;53.284;10.314;2022-08-21T16:22:47;5.53;;;1.35;;
21140;SDS011;10728;53.284;10.314;2022-08-21T16:25:13;5.20;;;1.63;;
21140;SDS011;10728;53.284;10.314;2022-08-21T16:27:39;5.38;;;1.27;;